Time;durP1;ratioP1;P1;durP2;ratioP2;P2;SDS_P1;SDS_P2;PMS_P1;PMS_P2;Temp;Humidity;BMP_temperature;BMP_pressure;BME280_temperature;BME280_humidity;BME280_pressure;Samples;Min_cycle;Max_cycle;Signal;HPM_P1;HPM_P2
2022/10/30 00:01:33;;;;;;;1999.90;999.90;;;;;;;;;;5063597;28;20498;-76
2022/10/30 00:04:03;;;;;;;1999.90;999.90;;;;;;;;;;5066977;28;20414;-75
2022/10/30 00:06:30;;;;;;;1999.90;999.90;;;;;;;;;;5066732;28;20394;-76
2022/10/30 00:08:58;;;;;;;1999.90;999.90;;;;;;;;;;5065505;28;20546;-76
2022/10/30 00:11:25;;;;;;;1999.90;999.90;;;;;;;;;;5062473;28;20701;-76
2022/10/30 00:13:53;;;;;;;1999.90;999.90;;;;;;;;;;5068140;28;21301;-75
2022/10/30 00:16:21;;;;;;;1999.90;999.90;;;;;;;;;;5068510;28;20874;-76
2022/10/30 00:18:48;;;;;;;1999.90;999.90;;;;;;;;;;5064603;28;20479;-76
2022/10/30 00:21:17;;;;;;;1999.90;999.90;;;;;;;;;;5054077;28;20477;-76
2022/10/30 00:23:45;;;;;;;1999.90;999.90;;;;;;;;;;5062719;28;20389;-76
2022/10/30 00:26:13;;;;;;;1999.90;999.90;;;;;;;;;;5061461;28;20468;-75
2022/10/30 00:28:41;;;;;;;1999.90;999.90;;;;;;;;;;5062953;28;20924;-75
2022/10/30 00:31:08;;;;;;;1999.90;999.90;;;;;;;;;;5065364;28;20464;-76
2022/10/30 00:33:36;;;;;;;1999.90;999.90;;;;;;;;;;5066624;28;20424;-76
2022/10/30 00:36:04;;;;;;;1999.90;999.90;;;;;;;;;;5066072;28;20399;-75
2022/10/30 00:38:34;;;;;;;1999.90;999.90;;;;;;;;;;5064131;28;20410;-76
2022/10/30 00:41:01;;;;;;;1999.90;999.90;;;;;;;;;;5066592;28;20472;-74
2022/10/30 00:43:30;;;;;;;1999.90;999.90;;;;;;;;;;5064227;28;20445;-75
2022/10/30 00:45:59;;;;;;;1999.90;999.90;;;;;;;;;;5063307;28;20407;-76
2022/10/30 00:48:28;;;;;;;1999.90;999.90;;;;;;;;;;5066691;28;20398;-74
2022/10/30 00:50:57;;;;;;;1999.90;999.90;;;;;;;;;;5080853;28;20934;-76
2022/10/30 00:53:25;;;;;;;1999.90;999.90;;;;;;;;;;5063291;28;20402;-76
2022/10/30 00:55:56;;;;;;;1999.90;999.90;;;;;;;;;;5065170;28;20476;-76
2022/10/30 00:58:26;;;;;;;1999.90;999.90;;;;;;;;;;5064523;28;20394;-76
2022/10/30 01:00:54;;;;;;;1999.90;999.90;;;;;;;;;;5048264;28;20433;-75
2022/10/30 01:03:22;;;;;;;1999.90;999.90;;;;;;;;;;5047800;28;20403;-76
2022/10/30 01:05:52;;;;;;;1999.90;999.90;;;;;;;;;;5054131;28;20386;-75
2022/10/30 01:08:20;;;;;;;1999.90;999.90;;;;;;;;;;5064112;28;20391;-76
2022/10/30 01:10:48;;;;;;;1999.90;999.90;;;;;;;;;;5045034;28;20468;-76
2022/10/30 01:13:19;;;;;;;1999.90;999.90;;;;;;;;;;5063450;28;20443;-75
2022/10/30 01:15:52;;;;;;;1999.90;999.90;;;;;;;;;;5054492;28;20406;-76
2022/10/30 01:18:31;;;;;;;1999.90;999.90;;;;;;;;;;5066616;28;21017;-76
2022/10/30 01:21:07;;;;;;;1999.90;999.90;;;;;;;;;;5047577;28;20402;-76
2022/10/30 01:23:39;;;;;;;1999.90;999.90;;;;;;;;;;5049251;28;20426;-75
2022/10/30 01:26:11;;;;;;;1999.90;999.90;;;;;;;;;;5049432;28;20399;-76
2022/10/30 01:28:50;;;;;;;1999.90;999.90;;;;;;;;;;5066393;28;20441;-75
2022/10/30 01:31:27;;;;;;;1999.90;999.90;;;;;;;;;;5061948;28;20414;-75
2022/10/30 01:34:04;;;;;;;1999.90;999.90;;;;;;;;;;5066671;28;20495;-76
2022/10/30 01:36:36;;;;;;;1999.90;999.90;;;;;;;;;;5067114;28;20481;-74
2022/10/30 01:39:07;;;;;;;1999.90;999.90;;;;;;;;;;5066897;28;20395;-75
2022/10/30 01:41:35;;;;;;;1999.90;999.90;;;;;;;;;;5045180;28;20482;-76
2022/10/30 01:44:07;;;;;;;1999.90;999.90;;;;;;;;;;5064311;28;20403;-75
2022/10/30 01:46:44;;;;;;;1999.90;999.90;;;;;;;;;;5063601;28;20419;-76
2022/10/30 01:49:24;;;;;;;1999.90;999.90;;;;;;;;;;5047171;28;20391;-77
2022/10/30 01:51:58;;;;;;;1999.90;999.90;;;;;;;;;;5063556;28;20429;-77
2022/10/30 01:54:32;;;;;;;1999.90;999.90;;;;;;;;;;5046871;28;20801;-77
2022/10/30 01:57:03;;;;;;;1999.90;999.90;;;;;;;;;;5056598;28;20409;-76
2022/10/30 01:59:35;;;;;;;1999.90;999.90;;;;;;;;;;5068953;28;20404;-76
2022/10/30 02:02:06;;;;;;;1999.90;999.90;;;;;;;;;;5068245;28;20425;-76
2022/10/30 02:04:34;;;;;;;1999.90;999.90;;;;;;;;;;5047003;28;20449;-76
2022/10/30 02:07:02;;;;;;;1999.90;999.90;;;;;;;;;;5046938;28;20395;-77
2022/10/30 02:09:34;;;;;;;1999.90;999.90;;;;;;;;;;5047584;28;20367;-76
2022/10/30 02:12:02;;;;;;;1999.90;999.90;;;;;;;;;;5044875;28;20414;-76
2022/10/30 02:14:33;;;;;;;1999.90;999.90;;;;;;;;;;5065935;28;20497;-74
2022/10/30 02:17:05;;;;;;;1999.90;999.90;;;;;;;;;;5065600;28;20413;-76
2022/10/30 02:19:33;;;;;;;1999.90;999.90;;;;;;;;;;5045099;28;20414;-75
2022/10/30 02:22:04;;;;;;;1999.90;999.90;;;;;;;;;;5060542;28;20574;-76
2022/10/30 02:24:32;;;;;;;1999.90;999.90;;;;;;;;;;5063993;28;20382;-78
2022/10/30 02:27:00;;;;;;;1999.90;999.90;;;;;;;;;;5046419;28;20434;-76
2022/10/30 02:29:27;;;;;;;1999.90;999.90;;;;;;;;;;5065568;28;20406;-77
2022/10/30 02:31:55;;;;;;;1999.90;999.90;;;;;;;;;;5046397;28;20416;-76
2022/10/30 02:34:23;;;;;;;1999.90;999.90;;;;;;;;;;5063819;28;20398;-76
2022/10/30 02:36:50;;;;;;;1999.90;999.90;;;;;;;;;;5062644;28;21811;-76
2022/10/30 02:39:21;;;;;;;1999.90;999.90;;;;;;;;;;5064894;28;20785;-76
2022/10/30 02:41:49;;;;;;;1999.90;999.90;;;;;;;;;;5066423;28;20433;-76
2022/10/30 02:44:17;;;;;;;1999.90;999.90;;;;;;;;;;5047715;28;20897;-75
2022/10/30 02:46:46;;;;;;;1999.90;999.90;;;;;;;;;;5045537;28;20481;-74
2022/10/30 02:49:14;;;;;;;1999.90;999.90;;;;;;;;;;5046546;28;20394;-76
2022/10/30 02:51:42;;;;;;;1999.90;999.90;;;;;;;;;;5045146;28;21495;-75
2022/10/30 02:54:11;;;;;;;1999.90;999.90;;;;;;;;;;5062144;28;20520;-76
2022/10/30 02:56:41;;;;;;;1999.90;999.90;;;;;;;;;;5046761;28;20415;-77
2022/10/30 02:59:09;;;;;;;1999.90;999.90;;;;;;;;;;5044723;28;20398;-76
2022/10/30 03:01:38;;;;;;;1999.90;999.90;;;;;;;;;;5062206;28;20468;-76
2022/10/30 03:04:06;;;;;;;1999.90;999.90;;;;;;;;;;5062007;28;20995;-77
2022/10/30 03:06:34;;;;;;;1999.90;999.90;;;;;;;;;;5080540;28;21259;-75
2022/10/30 03:09:02;;;;;;;1999.90;999.90;;;;;;;;;;5062891;28;20403;-76
2022/10/30 03:11:46;;;;;;;1999.90;999.90;;;;;;;;;;5070528;28;20414;-76
2022/10/30 03:14:14;;;;;;;1999.90;999.90;;;;;;;;;;5062357;28;20390;-76
2022/10/30 03:16:43;;;;;;;1999.90;999.90;;;;;;;;;;5063344;28;20408;-76
2022/10/30 03:19:10;;;;;;;1999.90;999.90;;;;;;;;;;5054756;28;20402;-76
2022/10/30 03:21:38;;;;;;;1999.90;999.90;;;;;;;;;;5064250;28;20489;-76
2022/10/30 03:24:06;;;;;;;1999.90;999.90;;;;;;;;;;5063043;28;20481;-75
2022/10/30 03:26:34;;;;;;;1999.90;999.90;;;;;;;;;;5047551;28;20418;-76
2022/10/30 03:29:06;;;;;;;1999.90;999.90;;;;;;;;;;5066039;28;20395;-75
2022/10/30 03:31:34;;;;;;;1999.90;999.90;;;;;;;;;;5047309;28;20479;-75
2022/10/30 03:34:15;;;;;;;1999.90;999.90;;;;;;;;;;5064333;28;21288;-75
2022/10/30 03:36:43;;;;;;;1999.90;999.90;;;;;;;;;;5066356;28;20465;-76
2022/10/30 03:39:11;;;;;;;1999.90;999.90;;;;;;;;;;5056971;28;20430;-77
2022/10/30 03:41:43;;;;;;;1999.90;999.90;;;;;;;;;;5061559;28;20414;-78
2022/10/30 03:44:13;;;;;;;1999.90;999.90;;;;;;;;;;5064297;28;20470;-76
2022/10/30 03:46:41;;;;;;;1999.90;999.90;;;;;;;;;;5063223;28;20402;-77
2022/10/30 03:49:20;;;;;;;1999.90;999.90;;;;;;;;;;5062411;28;20398;-76
2022/10/30 03:51:48;;;;;;;1999.90;999.90;;;;;;;;;;5060111;28;20484;-77
2022/10/30 03:54:15;;;;;;;1999.90;999.90;;;;;;;;;;5047940;28;20456;-76
2022/10/30 03:56:44;;;;;;;1999.90;999.90;;;;;;;;;;5070399;28;20394;-76
2022/10/30 03:59:16;;;;;;;1999.90;999.90;;;;;;;;;;5046918;28;20406;-77
2022/10/30 04:01:55;;;;;;;1999.90;999.90;;;;;;;;;;5062239;28;20403;-75
2022/10/30 04:04:23;;;;;;;1999.90;999.90;;;;;;;;;;5063467;28;21154;-76
2022/10/30 04:06:51;;;;;;;1999.90;999.90;;;;;;;;;;5061672;28;20474;-76
2022/10/30 04:09:19;;;;;;;1999.90;999.90;;;;;;;;;;5063389;28;20406;-76
2022/10/30 04:11:46;;;;;;;1999.90;999.90;;;;;;;;;;5057450;28;20465;-75
2022/10/30 04:14:14;;;;;;;1999.90;999.90;;;;;;;;;;5060759;28;20437;-76
2022/10/30 04:16:43;;;;;;;1999.90;999.90;;;;;;;;;;5061485;28;20398;-76
2022/10/30 04:19:11;;;;;;;1999.90;999.90;;;;;;;;;;5060963;28;20402;-76
2022/10/30 04:21:42;;;;;;;1999.90;999.90;;;;;;;;;;5044498;28;21121;-77
2022/10/30 04:24:10;;;;;;;1999.90;999.90;;;;;;;;;;5078633;28;20505;-77
2022/10/30 04:26:38;;;;;;;1999.90;999.90;;;;;;;;;;5061617;28;20444;-77
2022/10/30 04:29:06;;;;;;;1999.90;999.90;;;;;;;;;;5063798;28;20397;-77
2022/10/30 04:31:33;;;;;;;1999.90;999.90;;;;;;;;;;5063879;28;20842;-77
2022/10/30 04:34:03;;;;;;;1999.90;999.90;;;;;;;;;;5062246;28;20412;-77
2022/10/30 04:36:32;;;;;;;1999.90;999.90;;;;;;;;;;5045858;28;20828;-77
2022/10/30 04:39:01;;;;;;;1999.90;999.90;;;;;;;;;;5071375;28;20407;-76
2022/10/30 04:41:29;;;;;;;1999.90;999.90;;;;;;;;;;5061884;28;20984;-75
2022/10/30 04:44:02;;;;;;;1999.90;999.90;;;;;;;;;;5062006;28;20394;-76
2022/10/30 04:46:32;;;;;;;1999.90;999.90;;;;;;;;;;5062841;28;20924;-75
2022/10/30 04:49:09;;;;;;;1999.90;999.90;;;;;;;;;;5045659;28;20395;-76
2022/10/30 04:51:36;;;;;;;1999.90;999.90;;;;;;;;;;5065314;28;20493;-76
2022/10/30 04:54:06;;;;;;;1999.90;999.90;;;;;;;;;;5082412;28;20439;-75
2022/10/30 04:56:36;;;;;;;1999.90;999.90;;;;;;;;;;5062091;28;20877;-76
2022/10/30 04:59:03;;;;;;;1999.90;999.90;;;;;;;;;;5053910;28;20423;-75
2022/10/30 05:01:31;;;;;;;1999.90;999.90;;;;;;;;;;5046267;28;20569;-75
2022/10/30 05:04:01;;;;;;;1999.90;999.90;;;;;;;;;;5053301;28;20406;-74
2022/10/30 05:06:32;;;;;;;1999.90;999.90;;;;;;;;;;5045638;28;20411;-77
2022/10/30 05:09:01;;;;;;;1999.90;999.90;;;;;;;;;;5064610;28;20449;-75
2022/10/30 05:11:35;;;;;;;1999.90;999.90;;;;;;;;;;5048321;28;20433;-75
2022/10/30 05:14:03;;;;;;;1999.90;999.90;;;;;;;;;;5061899;28;20390;-76
2022/10/30 05:16:31;;;;;;;1999.90;999.90;;;;;;;;;;5063052;28;20387;-75
2022/10/30 05:19:00;;;;;;;1999.90;999.90;;;;;;;;;;5065455;28;20398;-76
2022/10/30 05:21:28;;;;;;;1999.90;999.90;;;;;;;;;;5064306;28;21241;-75
2022/10/30 05:23:59;;;;;;;1999.90;999.90;;;;;;;;;;5047201;28;20391;-76
2022/10/30 05:26:31;;;;;;;1999.90;999.90;;;;;;;;;;5051566;28;20398;-75
2022/10/30 05:28:58;;;;;;;1999.90;999.90;;;;;;;;;;5064615;28;20476;-76
2022/10/30 05:31:26;;;;;;;1999.90;999.90;;;;;;;;;;5064846;28;20434;-74
2022/10/30 05:34:13;;;;;;;1999.90;999.90;;;;;;;;;;5064067;28;20479;-75
2022/10/30 05:36:41;;;;;;;1999.90;999.90;;;;;;;;;;5048035;28;20873;-76
2022/10/30 05:39:12;;;;;;;1999.90;999.90;;;;;;;;;;5074368;28;20510;-76
2022/10/30 05:41:44;;;;;;;1999.90;999.90;;;;;;;;;;5064661;28;20446;-76
2022/10/30 05:44:11;;;;;;;1999.90;999.90;;;;;;;;;;5064048;28;20399;-75
2022/10/30 05:46:42;;;;;;;1999.90;999.90;;;;;;;;;;5065933;28;20399;-76
2022/10/30 05:49:28;;;;;;;1999.90;999.90;;;;;;;;;;5048548;28;20391;-76
2022/10/30 05:51:58;;;;;;;1999.90;999.90;;;;;;;;;;5064648;28;20473;-75
2022/10/30 05:54:28;;;;;;;1999.90;999.90;;;;;;;;;;5063773;28;20414;-75
2022/10/30 05:57:07;;;;;;;1999.90;999.90;;;;;;;;;;5060885;28;20570;-75
2022/10/30 05:59:38;;;;;;;1999.90;999.90;;;;;;;;;;5062258;28;20395;-75
2022/10/30 06:02:05;;;;;;;1999.90;999.90;;;;;;;;;;5063443;28;20529;-74
2022/10/30 06:04:34;;;;;;;1999.90;999.90;;;;;;;;;;5062343;28;20395;-75
2022/10/30 06:07:05;;;;;;;1999.90;999.90;;;;;;;;;;5064206;28;20402;-75
2022/10/30 06:09:34;;;;;;;1999.90;999.90;;;;;;;;;;5062721;28;20416;-75
2022/10/30 06:12:18;;;;;;;1999.90;999.90;;;;;;;;;;5062696;28;20426;-74
2022/10/30 06:14:58;;;;;;;1999.90;999.90;;;;;;;;;;5079759;28;20790;-74
2022/10/30 06:17:26;;;;;;;1999.90;999.90;;;;;;;;;;5061034;28;20448;-75
2022/10/30 06:20:14;;;;;;;1999.90;999.90;;;;;;;;;;5065303;28;20405;-75
2022/10/30 06:23:09;;;;;;;1999.90;999.90;;;;;;;;;;5043137;28;20402;-75
2022/10/30 06:25:47;;;;;;;1999.90;999.90;;;;;;;;;;5062324;28;20858;-75
2022/10/30 06:28:21;;;;;;;1999.90;999.90;;;;;;;;;;5038867;28;20382;-74
2022/10/30 06:30:51;;;;;;;1999.90;999.90;;;;;;;;;;5060444;28;20627;-74
2022/10/30 06:33:18;;;;;;;1999.90;999.90;;;;;;;;;;5035164;28;20419;-74
2022/10/30 06:35:49;;;;;;;1999.90;999.90;;;;;;;;;;5041119;28;20500;-75
2022/10/30 06:38:19;;;;;;;1999.90;999.90;;;;;;;;;;5039210;28;20390;-75
2022/10/30 06:40:49;;;;;;;1999.90;999.90;;;;;;;;;;5052520;28;20515;-75
2022/10/30 06:43:37;;;;;;;1999.90;999.90;;;;;;;;;;5032728;28;20415;-75
2022/10/30 06:46:14;;;;;;;1999.90;999.90;;;;;;;;;;5033234;28;21190;-74
2022/10/30 06:48:43;;;;;;;1999.90;999.90;;;;;;;;;;5054920;28;20414;-74
2022/10/30 06:51:14;;;;;;;1999.90;999.90;;;;;;;;;;5032627;28;21260;-75
2022/10/30 06:53:42;;;;;;;1999.90;999.90;;;;;;;;;;5028245;28;20425;-73
2022/10/30 06:56:40;;;;;;;1999.90;999.90;;;;;;;;;;5002936;28;20516;-75
2022/10/30 06:59:17;;;;;;;1999.90;999.90;;;;;;;;;;5049019;28;20494;-75
2022/10/30 07:02:06;;;;;;;1999.90;999.90;;;;;;;;;;5038406;28;20475;-74
2022/10/30 07:04:46;;;;;;;1999.90;999.90;;;;;;;;;;5045383;28;20414;-74
2022/10/30 07:07:14;;;;;;;1999.90;999.90;;;;;;;;;;5061441;28;20394;-74
2022/10/30 07:09:42;;;;;;;1999.90;999.90;;;;;;;;;;5077362;28;20979;-74
2022/10/30 07:12:12;;;;;;;1999.90;999.90;;;;;;;;;;5044727;28;20462;-74
2022/10/30 07:14:48;;;;;;;1999.90;999.90;;;;;;;;;;5043010;28;20413;-74
2022/10/30 07:17:55;;;;;;;1999.90;999.90;;;;;;;;;;5039374;28;20915;-75
2022/10/30 07:20:25;;;;;;;1999.90;999.90;;;;;;;;;;5058626;28;20381;-75
2022/10/30 07:22:52;;;;;;;1999.90;999.90;;;;;;;;;;5060590;28;20409;-75
2022/10/30 07:25:21;;;;;;;1999.90;999.90;;;;;;;;;;5050777;28;20561;-75
2022/10/30 07:27:57;;;;;;;1999.90;999.90;;;;;;;;;;5055613;28;20508;-76
2022/10/30 07:30:45;;;;;;;1999.90;999.90;;;;;;;;;;5023642;28;20410;-76
2022/10/30 07:33:31;;;;;;;1999.90;999.90;;;;;;;;;;5058952;28;20394;-75
2022/10/30 07:36:13;;;;;;;1999.90;999.90;;;;;;;;;;5059743;28;20474;-75
2022/10/30 07:38:47;;;;;;;1999.90;999.90;;;;;;;;;;5043913;28;20445;-74
2022/10/30 07:41:38;;;;;;;1999.90;999.90;;;;;;;;;;5046914;28;20397;-75
2022/10/30 07:44:33;;;;;;;1999.90;999.90;;;;;;;;;;5038302;28;20996;-74
2022/10/30 07:47:17;;;;;;;1999.90;999.90;;;;;;;;;;5059814;28;20446;-75
2022/10/30 07:49:54;;;;;;;1999.90;999.90;;;;;;;;;;5062631;28;20394;-75
2022/10/30 07:52:22;;;;;;;1999.90;999.90;;;;;;;;;;5060729;28;20421;-76
2022/10/30 07:54:51;;;;;;;1999.90;999.90;;;;;;;;;;5064692;28;20901;-74
2022/10/30 07:57:38;;;;;;;1999.90;999.90;;;;;;;;;;5073111;28;20457;-74
2022/10/30 08:00:26;;;;;;;1999.90;999.90;;;;;;;;;;5062322;28;20400;-75
2022/10/30 08:03:12;;;;;;;1999.90;999.90;;;;;;;;;;5045394;28;20938;-75
2022/10/30 08:05:46;;;;;;;1999.90;999.90;;;;;;;;;;5064603;28;20370;-73
2022/10/30 08:08:20;;;;;;;1999.90;999.90;;;;;;;;;;5062290;28;20458;-77
2022/10/30 08:10:56;;;;;;;1999.90;999.90;;;;;;;;;;5080854;28;20403;-80
2022/10/30 08:13:24;;;;;;;1999.90;999.90;;;;;;;;;;5043706;28;20442;-79
2022/10/30 08:15:53;;;;;;;1999.90;999.90;;;;;;;;;;5054857;28;20358;-78
2022/10/30 08:18:21;;;;;;;1999.90;999.90;;;;;;;;;;5065936;28;20434;-75
2022/10/30 08:20:50;;;;;;;1999.90;999.90;;;;;;;;;;5054983;28;20952;-74
2022/10/30 08:23:20;;;;;;;1999.90;999.90;;;;;;;;;;5060720;28;20816;-72
2022/10/30 08:25:48;;;;;;;1999.90;999.90;;;;;;;;;;5063244;28;20414;-74
2022/10/30 08:28:16;;;;;;;1999.90;999.90;;;;;;;;;;5068275;28;20410;-71
2022/10/30 08:30:44;;;;;;;1999.90;999.90;;;;;;;;;;5040815;28;20418;-73
2022/10/30 08:33:17;;;;;;;1999.90;999.90;;;;;;;;;;5043477;28;20502;-73
2022/10/30 08:35:51;;;;;;;1999.90;999.90;;;;;;;;;;5063586;28;20415;-73
2022/10/30 08:38:19;;;;;;;1999.90;999.90;;;;;;;;;;5066491;28;20387;-73
2022/10/30 08:40:57;;;;;;;1999.90;999.90;;;;;;;;;;5069776;28;20398;-73
2022/10/30 08:43:25;;;;;;;1999.90;999.90;;;;;;;;;;5068190;28;20483;-73
2022/10/30 08:45:53;;;;;;;1999.90;999.90;;;;;;;;;;5047782;28;20399;-73
2022/10/30 08:48:23;;;;;;;1999.90;999.90;;;;;;;;;;5074140;28;20411;-73
2022/10/30 08:50:51;;;;;;;1999.90;999.90;;;;;;;;;;5067409;28;20379;-73
2022/10/30 08:53:26;;;;;;;1999.90;999.90;;;;;;;;;;5049412;28;20395;-74
2022/10/30 08:55:55;;;;;;;1999.90;999.90;;;;;;;;;;5082500;28;20962;-73
2022/10/30 08:58:32;;;;;;;1999.90;999.90;;;;;;;;;;5045536;28;20862;-73
2022/10/30 09:01:01;;;;;;;1999.90;999.90;;;;;;;;;;5074268;28;20383;-73
2022/10/30 09:03:49;;;;;;;1999.90;999.90;;;;;;;;;;5064982;28;20407;-73
2022/10/30 09:06:39;;;;;;;1999.90;999.90;;;;;;;;;;5065162;28;20391;-73
2022/10/30 09:09:27;;;;;;;1999.90;999.90;;;;;;;;;;5044314;28;20464;-74
2022/10/30 09:11:59;;;;;;;1999.90;999.90;;;;;;;;;;5049444;28;20405;-72
2022/10/30 09:14:27;;;;;;;1999.90;999.90;;;;;;;;;;5042981;28;21243;-72
2022/10/30 09:16:56;;;;;;;1999.90;999.90;;;;;;;;;;5076058;28;20430;-73
2022/10/30 09:19:27;;;;;;;1999.90;999.90;;;;;;;;;;5060723;28;20412;-72
2022/10/30 09:21:57;;;;;;;1999.90;999.90;;;;;;;;;;5061770;28;20390;-72
2022/10/30 09:24:24;;;;;;;1999.90;999.90;;;;;;;;;;5060788;28;20411;-73
2022/10/30 09:26:52;;;;;;;1999.90;999.90;;;;;;;;;;5060208;28;20399;-72
2022/10/30 09:29:25;;;;;;;1999.90;999.90;;;;;;;;;;5044196;28;21196;-73
2022/10/30 09:32:09;;;;;;;1999.90;999.90;;;;;;;;;;5058864;28;20393;-72
2022/10/30 09:34:56;;;;;;;1999.90;999.90;;;;;;;;;;5060694;28;21030;-73
2022/10/30 09:37:26;;;;;;;1999.90;999.90;;;;;;;;;;5062775;28;20398;-72
2022/10/30 09:39:59;;;;;;;1999.90;999.90;;;;;;;;;;5046562;28;20428;-71
2022/10/30 09:42:35;;;;;;;1999.90;999.90;;;;;;;;;;5047209;28;20936;-71
2022/10/30 09:45:17;;;;;;;1999.90;999.90;;;;;;;;;;5060911;28;20449;-72
2022/10/30 09:48:07;;;;;;;1999.90;999.90;;;;;;;;;;5063938;28;20459;-72
2022/10/30 09:50:54;;;;;;;1999.90;999.90;;;;;;;;;;5063733;28;20457;-73
2022/10/30 09:53:25;;;;;;;1999.90;999.90;;;;;;;;;;5078305;28;20405;-73
2022/10/30 09:56:00;;;;;;;1999.90;999.90;;;;;;;;;;5047892;28;20398;-73
2022/10/30 09:58:33;;;;;;;1999.90;999.90;;;;;;;;;;5062854;28;21746;-72
2022/10/30 10:01:07;;;;;;;1999.90;999.90;;;;;;;;;;5045860;28;20418;-72
2022/10/30 10:03:41;;;;;;;1999.90;999.90;;;;;;;;;;5045797;28;20449;-73
2022/10/30 10:06:29;;;;;;;1999.90;999.90;;;;;;;;;;5065797;28;20453;-71
2022/10/30 10:09:15;;;;;;;1999.90;999.90;;;;;;;;;;5061194;28;20395;-72
2022/10/30 10:12:00;;;;;;;1999.90;999.90;;;;;;;;;;5063695;28;20513;-72
2022/10/30 10:14:29;;;;;;;1999.90;999.90;;;;;;;;;;5063452;28;20391;-72
2022/10/30 10:16:59;;;;;;;1999.90;999.90;;;;;;;;;;5062913;28;20476;-73
2022/10/30 10:19:30;;;;;;;1999.90;999.90;;;;;;;;;;5064333;28;20414;-73
2022/10/30 10:22:00;;;;;;;1999.90;999.90;;;;;;;;;;5064197;28;20979;-72
2022/10/30 10:24:30;;;;;;;1999.90;999.90;;;;;;;;;;5063994;28;20403;-72
2022/10/30 10:27:01;;;;;;;1999.90;999.90;;;;;;;;;;5061490;28;20430;-73
2022/10/30 10:29:33;;;;;;;1999.90;999.90;;;;;;;;;;5062369;28;20984;-73
2022/10/30 10:32:08;;;;;;;1999.90;999.90;;;;;;;;;;5060960;28;20476;-73
2022/10/30 10:34:45;;;;;;;1999.90;999.90;;;;;;;;;;5064940;28;20383;-73
2022/10/30 10:37:19;;;;;;;1999.90;999.90;;;;;;;;;;5063023;28;20414;-72
2022/10/30 10:39:58;;;;;;;1999.90;999.90;;;;;;;;;;5064242;28;20398;-71
2022/10/30 10:42:31;;;;;;;1999.90;999.90;;;;;;;;;;5052939;28;20421;-73
2022/10/30 10:45:07;;;;;;;1999.90;999.90;;;;;;;;;;5063160;28;20403;-72
2022/10/30 10:47:47;;;;;;;1999.90;999.90;;;;;;;;;;5060720;28;20399;-72
2022/10/30 10:50:18;;;;;;;1999.90;999.90;;;;;;;;;;5063042;28;21010;-72
2022/10/30 10:52:51;;;;;;;1999.90;999.90;;;;;;;;;;5062787;28;20963;-71
2022/10/30 10:55:20;;;;;;;1999.90;999.90;;;;;;;;;;5062902;28;20948;-72
2022/10/30 10:57:49;;;;;;;1999.90;999.90;;;;;;;;;;5064580;28;20877;-72
2022/10/30 11:00:18;;;;;;;1999.90;999.90;;;;;;;;;;5061138;28;20414;-72
2022/10/30 11:02:48;;;;;;;1999.90;999.90;;;;;;;;;;5062542;28;20411;-72
2022/10/30 11:05:21;;;;;;;1999.90;999.90;;;;;;;;;;5063181;28;20931;-72
2022/10/30 11:07:50;;;;;;;1999.90;999.90;;;;;;;;;;5061012;28;20410;-73
2022/10/30 11:10:19;;;;;;;1999.90;999.90;;;;;;;;;;5062845;28;20430;-71
2022/10/30 11:12:47;;;;;;;1999.90;999.90;;;;;;;;;;5063675;28;20430;-72
2022/10/30 11:15:20;;;;;;;1999.90;999.90;;;;;;;;;;5059497;28;21690;-73
2022/10/30 11:17:52;;;;;;;1999.90;999.90;;;;;;;;;;5046031;28;20397;-73
2022/10/30 11:20:21;;;;;;;1999.90;999.90;;;;;;;;;;5062000;28;20446;-72
2022/10/30 11:22:51;;;;;;;1999.90;999.90;;;;;;;;;;5064436;28;20434;-72
2022/10/30 11:25:20;;;;;;;1999.90;999.90;;;;;;;;;;5062714;28;20411;-72
2022/10/30 11:27:55;;;;;;;1999.90;999.90;;;;;;;;;;5045999;28;20438;-72
2022/10/30 11:30:25;;;;;;;1999.90;999.90;;;;;;;;;;5061463;28;20450;-72
2022/10/30 11:32:52;;;;;;;1999.90;999.90;;;;;;;;;;5062912;28;20452;-71
2022/10/30 11:35:24;;;;;;;1999.90;999.90;;;;;;;;;;5063336;28;20976;-72
2022/10/30 11:38:11;;;;;;;1999.90;999.90;;;;;;;;;;5062952;28;20485;-72
2022/10/30 11:40:40;;;;;;;1999.90;999.90;;;;;;;;;;5063664;28;20490;-74
2022/10/30 11:43:09;;;;;;;1999.90;999.90;;;;;;;;;;5059898;28;20839;-72
2022/10/30 11:45:38;;;;;;;1999.90;999.90;;;;;;;;;;5064276;28;20383;-73
2022/10/30 11:48:09;;;;;;;1999.90;999.90;;;;;;;;;;5060996;28;20484;-72
2022/10/30 11:50:45;;;;;;;1999.90;999.90;;;;;;;;;;5060637;28;20832;-72
2022/10/30 11:53:19;;;;;;;1999.90;999.90;;;;;;;;;;5062094;28;20518;-72
2022/10/30 11:55:48;;;;;;;1999.90;999.90;;;;;;;;;;5065750;28;20394;-72
2022/10/30 11:58:21;;;;;;;1999.90;999.90;;;;;;;;;;5048003;28;20394;-73
2022/10/30 12:00:58;;;;;;;1999.90;999.90;;;;;;;;;;5067176;28;20898;-71
2022/10/30 12:03:28;;;;;;;1999.90;999.90;;;;;;;;;;5066181;28;20410;-73
2022/10/30 12:06:07;;;;;;;1999.90;999.90;;;;;;;;;;5065998;28;20496;-73
2022/10/30 12:08:36;;;;;;;1999.90;999.90;;;;;;;;;;5066127;28;20426;-73
2022/10/30 12:11:05;;;;;;;1999.90;999.90;;;;;;;;;;5047955;28;20386;-74
2022/10/30 12:13:36;;;;;;;1999.90;999.90;;;;;;;;;;5066363;28;20429;-74
2022/10/30 12:16:15;;;;;;;1999.90;999.90;;;;;;;;;;5066387;28;20441;-73
2022/10/30 12:18:51;;;;;;;1999.90;999.90;;;;;;;;;;5048953;28;20404;-73
2022/10/30 12:21:19;;;;;;;1999.90;999.90;;;;;;;;;;5047387;28;20383;-72
2022/10/30 12:23:53;;;;;;;1999.90;999.90;;;;;;;;;;5065356;28;20425;-72
2022/10/30 12:26:22;;;;;;;1999.90;999.90;;;;;;;;;;5065492;28;20405;-72
2022/10/30 12:28:53;;;;;;;1999.90;999.90;;;;;;;;;;5066637;28;20390;-72
2022/10/30 12:31:23;;;;;;;1999.90;999.90;;;;;;;;;;5063443;28;20438;-75
2022/10/30 12:33:53;;;;;;;1999.90;999.90;;;;;;;;;;5065693;28;20465;-72
2022/10/30 12:36:23;;;;;;;1999.90;999.90;;;;;;;;;;5064997;28;20449;-72
2022/10/30 12:38:55;;;;;;;1999.90;999.90;;;;;;;;;;5064686;28;20934;-73
2022/10/30 12:41:26;;;;;;;1999.90;999.90;;;;;;;;;;5065195;28;20789;-72
2022/10/30 12:43:56;;;;;;;1999.90;999.90;;;;;;;;;;5063026;28;20422;-72
2022/10/30 12:46:29;;;;;;;1999.90;999.90;;;;;;;;;;5064678;28;20876;-73
2022/10/30 12:49:00;;;;;;;1999.90;999.90;;;;;;;;;;5066297;28;20394;-73
2022/10/30 12:51:32;;;;;;;1999.90;999.90;;;;;;;;;;5065926;28;20387;-73
2022/10/30 12:54:03;;;;;;;1999.90;999.90;;;;;;;;;;5063051;28;20472;-73
2022/10/30 12:56:33;;;;;;;1999.90;999.90;;;;;;;;;;5064838;28;20457;-72
2022/10/30 12:59:10;;;;;;;1999.90;999.90;;;;;;;;;;5062391;28;20413;-74
2022/10/30 13:01:41;;;;;;;1999.90;999.90;;;;;;;;;;5050185;28;20485;-73
2022/10/30 13:04:10;;;;;;;1999.90;999.90;;;;;;;;;;5066320;28;20420;-74
2022/10/30 13:06:42;;;;;;;1999.90;999.90;;;;;;;;;;5065447;28;20438;-73
2022/10/30 13:09:15;;;;;;;1999.90;999.90;;;;;;;;;;5064742;28;20407;-73
2022/10/30 13:11:48;;;;;;;1999.90;999.90;;;;;;;;;;5063155;28;20419;-74
2022/10/30 13:14:17;;;;;;;1999.90;999.90;;;;;;;;;;5063275;28;20432;-72
2022/10/30 13:16:44;;;;;;;1999.90;999.90;;;;;;;;;;5063595;28;20829;-73
2022/10/30 13:19:12;;;;;;;1999.90;999.90;;;;;;;;;;5047839;28;20383;-73
2022/10/30 13:21:43;;;;;;;1999.90;999.90;;;;;;;;;;5063699;28;20448;-74
2022/10/30 13:24:20;;;;;;;1999.90;999.90;;;;;;;;;;5064003;28;20752;-73
2022/10/30 13:26:50;;;;;;;1999.90;999.90;;;;;;;;;;5065526;28;20450;-74
2022/10/30 13:29:22;;;;;;;1999.90;999.90;;;;;;;;;;5064984;28;20809;-72
2022/10/30 13:31:58;;;;;;;1999.90;999.90;;;;;;;;;;5061322;28;20472;-72
2022/10/30 13:34:30;;;;;;;1999.90;999.90;;;;;;;;;;5062355;28;20409;-72
2022/10/30 13:37:01;;;;;;;1999.90;999.90;;;;;;;;;;5064719;28;20407;-73
2022/10/30 13:39:32;;;;;;;1999.90;999.90;;;;;;;;;;5064758;28;20410;-73
2022/10/30 13:42:16;;;;;;;1999.90;999.90;;;;;;;;;;5064234;28;20445;-71
2022/10/30 13:44:49;;;;;;;1999.90;999.90;;;;;;;;;;5062885;28;20489;-72
2022/10/30 13:47:24;;;;;;;1999.90;999.90;;;;;;;;;;5064839;28;20410;-72
2022/10/30 13:49:58;;;;;;;1999.90;999.90;;;;;;;;;;5063326;28;20403;-71
2022/10/30 13:52:29;;;;;;;1999.90;999.90;;;;;;;;;;5063171;28;20420;-73
2022/10/30 13:55:01;;;;;;;1999.90;999.90;;;;;;;;;;5046153;28;20417;-72
2022/10/30 13:57:33;;;;;;;1999.90;999.90;;;;;;;;;;5063597;28;20390;-73
2022/10/30 14:00:04;;;;;;;1999.90;999.90;;;;;;;;;;5063638;28;20481;-72
2022/10/30 14:02:59;;;;;;;1999.90;999.90;;;;;;;;;;5063761;28;20403;-73
2022/10/30 14:05:30;;;;;;;1999.90;999.90;;;;;;;;;;5059086;28;21183;-72
2022/10/30 14:08:02;;;;;;;1999.90;999.90;;;;;;;;;;5062483;28;20430;-72
2022/10/30 14:10:42;;;;;;;1999.90;999.90;;;;;;;;;;5065094;28;20394;-72